createdAt,value
2018-07-13T00:01:22.215Z,9.87
2018-07-13T00:03:51.879Z,9.10
2018-07-13T00:06:20.079Z,9.93
2018-07-13T00:08:48.191Z,10.20
2018-07-13T00:11:16.256Z,13.33
2018-07-13T00:14:24.512Z,12.73
2018-07-13T00:16:53.950Z,8.33
2018-07-13T00:19:22.963Z,11.30
2018-07-13T00:21:51.887Z,11.80
2018-07-13T00:24:20.781Z,12.33
2018-07-13T00:26:49.025Z,12.00
2018-07-13T00:29:17.256Z,9.27
2018-07-13T00:31:45.623Z,13.97
2018-07-13T00:34:13.683Z,12.40
2018-07-13T00:36:41.887Z,9.23
2018-07-13T00:39:11.625Z,8.40
2018-07-13T00:41:39.675Z,8.03
2018-07-13T00:44:08.196Z,8.03
2018-07-13T00:46:36.236Z,9.67
2018-07-13T00:49:04.346Z,10.80
2018-07-13T00:51:32.500Z,12.53
2018-07-13T00:54:00.794Z,9.77
2018-07-13T00:56:29.049Z,10.20
2018-07-13T00:58:57.245Z,8.60
2018-07-13T01:01:25.275Z,10.33
2018-07-13T01:03:53.356Z,11.17
2018-07-13T01:06:21.412Z,17.27
2018-07-13T01:08:49.467Z,13.43
2018-07-13T01:11:17.553Z,12.23
2018-07-13T01:13:45.591Z,15.50
2018-07-13T01:16:13.808Z,13.73
2018-07-13T01:18:41.871Z,15.37
2018-07-13T01:21:09.919Z,13.97
2018-07-13T01:23:38.098Z,14.27
2018-07-13T01:26:06.174Z,11.57
2018-07-13T01:28:34.383Z,13.50
2018-07-13T01:31:02.799Z,15.90
2018-07-13T01:33:30.860Z,12.93
2018-07-13T01:35:58.931Z,16.80
2018-07-13T01:38:27.403Z,12.27
2018-07-13T01:40:55.451Z,19.80
2018-07-13T01:43:23.514Z,15.67
2018-07-13T01:45:51.744Z,14.83
2018-07-13T01:48:20.387Z,14.90
2018-07-13T01:50:48.979Z,17.07
2018-07-13T01:53:17.114Z,12.63
2018-07-13T01:55:45.217Z,18.90
2018-07-13T01:58:13.208Z,21.83
2018-07-13T02:00:41.706Z,24.03
2018-07-13T02:03:09.776Z,28.93
2018-07-13T02:05:37.842Z,24.03
2018-07-13T02:08:06.021Z,25.90
2018-07-13T02:10:34.083Z,26.10
2018-07-13T02:13:02.127Z,23.30
2018-07-13T02:15:30.207Z,29.47
2018-07-13T02:17:58.416Z,27.50
2018-07-13T02:20:26.807Z,25.77
2018-07-13T02:22:55.003Z,26.47
2018-07-13T02:25:23.323Z,23.87
2018-07-13T02:27:51.843Z,29.00
2018-07-13T02:30:20.252Z,24.43
2018-07-13T02:32:48.929Z,22.83
2018-07-13T02:35:17.070Z,24.00
2018-07-13T02:37:46.263Z,29.70
2018-07-13T02:40:14.487Z,24.07
2018-07-13T02:42:42.535Z,26.67
2018-07-13T02:45:10.847Z,26.07
2018-07-13T02:47:38.933Z,28.13
2018-07-13T02:50:07.029Z,27.50
2018-07-13T02:52:35.181Z,27.73
2018-07-13T02:55:03.278Z,27.83
2018-07-13T02:57:31.377Z,27.40
2018-07-13T02:59:59.545Z,25.23
2018-07-13T03:02:27.576Z,28.83
2018-07-13T03:04:55.632Z,33.53
2018-07-13T03:07:23.720Z,28.00
2018-07-13T03:09:51.771Z,28.67
2018-07-13T03:15:10.076Z,26.43
2018-07-13T03:17:38.117Z,27.30
2018-07-13T03:20:06.152Z,28.67
2018-07-13T03:22:34.197Z,26.97
2018-07-13T03:25:02.271Z,29.40
2018-07-13T03:27:30.327Z,33.27
2018-07-13T03:29:58.439Z,27.97
2018-07-13T03:32:26.507Z,26.23
2018-07-13T03:34:54.855Z,30.17
2018-07-13T03:37:22.910Z,29.33
2018-07-13T03:39:50.972Z,33.93
2018-07-13T03:42:19.311Z,36.27
2018-07-13T03:44:47.359Z,33.93
2018-07-13T03:47:15.441Z,27.50
2018-07-13T03:49:43.515Z,38.07
2018-07-13T03:52:11.575Z,32.43
2018-07-13T03:54:39.628Z,29.73
2018-07-13T03:57:07.679Z,30.63
2018-07-13T03:59:35.757Z,29.00
2018-07-13T04:02:03.813Z,28.17
2018-07-13T04:04:31.916Z,31.43
2018-07-13T04:06:59.981Z,25.77
2018-07-13T04:09:28.395Z,26.70
2018-07-13T04:11:56.472Z,29.73
2018-07-13T04:14:24.524Z,35.30
2018-07-13T04:16:52.856Z,26.20
2018-07-13T04:19:20.903Z,29.50
2018-07-13T04:21:48.956Z,27.87
2018-07-13T04:24:17.044Z,29.47
2018-07-13T04:26:47.343Z,27.23
2018-07-13T04:29:15.468Z,33.40
2018-07-13T04:31:43.527Z,28.57
2018-07-13T04:34:11.622Z,33.30
2018-07-13T04:36:39.672Z,34.43
2018-07-13T04:39:09.324Z,26.47
2018-07-13T04:41:37.388Z,24.63
2018-07-13T04:44:05.743Z,32.40
2018-07-13T04:46:34.283Z,28.23
2018-07-13T04:49:02.600Z,29.40
2018-07-13T04:51:30.656Z,33.40
2018-07-13T04:53:58.794Z,30.17
2018-07-13T04:56:27.037Z,26.33
2018-07-13T04:58:55.249Z,27.57
2018-07-13T05:01:23.449Z,26.80
2018-07-13T05:03:51.496Z,27.13
2018-07-13T05:06:19.679Z,25.77
2018-07-13T05:08:47.689Z,22.00
2018-07-13T05:11:15.764Z,24.73
2018-07-13T05:13:43.831Z,26.37
2018-07-13T05:16:11.951Z,23.73
2018-07-13T05:18:40.020Z,22.70
2018-07-13T05:21:08.081Z,22.60
2018-07-13T05:23:36.152Z,21.83
2018-07-13T05:26:04.320Z,22.80
2018-07-13T05:28:32.399Z,25.07
2018-07-13T05:31:00.497Z,24.43
2018-07-13T05:33:28.571Z,22.17
2018-07-13T05:35:56.876Z,21.50
2018-07-13T05:38:24.949Z,19.37
2018-07-13T05:40:52.992Z,19.53
2018-07-13T05:43:21.062Z,21.60
2018-07-13T05:45:49.119Z,21.60
2018-07-13T05:48:17.328Z,19.77
2018-07-13T05:50:45.443Z,20.83
2018-07-13T05:53:13.504Z,24.77
2018-07-13T05:55:41.586Z,27.03
2018-07-13T05:58:09.663Z,31.47
2018-07-13T06:00:37.889Z,28.20
2018-07-13T06:03:05.960Z,24.60
2018-07-13T06:05:34.329Z,26.77
2018-07-13T06:08:02.489Z,28.53
2018-07-13T06:10:30.551Z,32.80
2018-07-13T06:12:58.636Z,27.17
2018-07-13T06:15:27.772Z,26.93
2018-07-13T06:17:55.884Z,24.63
2018-07-13T06:20:24.018Z,28.67
2018-07-13T06:22:52.179Z,34.97
2018-07-13T06:25:20.213Z,33.57
2018-07-13T06:27:48.284Z,33.83
2018-07-13T06:30:16.343Z,25.27
2018-07-13T06:32:44.755Z,30.37
2018-07-13T06:35:12.832Z,29.70
2018-07-13T06:37:40.880Z,30.27
2018-07-13T06:40:09.185Z,27.40
2018-07-13T06:42:37.236Z,32.73
2018-07-13T06:45:05.343Z,31.20
2018-07-13T06:47:33.488Z,28.53
2018-07-13T06:50:01.547Z,30.63
2018-07-13T06:52:29.863Z,24.20
2018-07-13T06:54:57.928Z,28.60
2018-07-13T06:57:37.303Z,27.43
2018-07-13T07:01:17.415Z,24.43
2018-07-13T07:04:48.507Z,25.10
2018-07-13T07:07:18.148Z,31.87
2018-07-13T07:09:48.811Z,30.70
2018-07-13T07:12:56.662Z,25.00
2018-07-13T07:15:25.416Z,28.62
2018-07-13T07:17:54.530Z,28.87
2018-07-13T07:20:22.591Z,26.40
2018-07-13T07:22:50.648Z,25.37
2018-07-13T07:25:18.975Z,25.62
2018-07-13T07:27:47.167Z,30.53
2018-07-13T07:30:15.207Z,28.05
2018-07-13T07:32:44.045Z,25.10
2018-07-13T07:35:12.140Z,24.30
2018-07-13T07:37:40.288Z,28.77
2018-07-13T07:40:08.321Z,22.82
2018-07-13T07:42:36.362Z,24.75
2018-07-13T07:45:04.988Z,19.75
2018-07-13T07:47:33.388Z,26.42
2018-07-13T07:50:02.262Z,20.65
2018-07-13T07:52:30.568Z,22.67
2018-07-13T07:54:58.711Z,21.80
2018-07-13T07:57:26.958Z,21.20
2018-07-13T07:59:55.073Z,19.02
2018-07-13T08:02:23.321Z,19.23
2018-07-13T08:04:51.501Z,22.07
2018-07-13T08:07:19.920Z,18.98
2018-07-13T08:09:47.852Z,20.55
2018-07-13T08:12:16.077Z,16.75
2018-07-13T08:14:44.142Z,18.67
2018-07-13T08:17:12.169Z,16.50
2018-07-13T08:19:40.216Z,16.80
2018-07-13T08:22:15.075Z,17.25
2018-07-13T08:24:44.352Z,18.20
2018-07-13T08:27:14.595Z,18.80
2018-07-13T08:29:42.644Z,21.60
2018-07-13T08:32:10.699Z,16.40
2018-07-13T08:34:39.672Z,16.12
2018-07-13T08:37:07.809Z,16.32
2018-07-13T08:39:36.118Z,17.67
2018-07-13T08:42:04.204Z,16.70
2018-07-13T08:44:32.271Z,14.33
2018-07-13T08:47:01.711Z,18.45
2018-07-13T08:49:29.755Z,16.37
2018-07-13T08:51:57.831Z,18.73
2018-07-13T08:54:25.927Z,17.30
2018-07-13T08:56:54.892Z,18.70
2018-07-13T08:59:23.097Z,19.98
2018-07-13T09:01:51.260Z,21.02
2018-07-13T09:04:19.400Z,16.95
2018-07-13T09:06:47.557Z,37.60
2018-07-13T09:09:17.471Z,16.25
2018-07-13T09:11:45.861Z,18.70
2018-07-13T09:14:13.964Z,14.75
2018-07-13T09:16:42.068Z,16.95
2018-07-13T09:19:10.120Z,19.25
2018-07-13T09:21:38.547Z,16.05
2018-07-13T09:24:07.257Z,17.50
2018-07-13T09:26:35.343Z,17.85
2018-07-13T09:29:03.384Z,16.75
2018-07-13T09:31:31.443Z,14.65
2018-07-13T09:33:59.501Z,15.63
2018-07-13T09:36:27.561Z,16.75
2018-07-13T09:38:55.631Z,15.25
2018-07-13T09:41:23.679Z,16.70
2018-07-13T09:43:52.007Z,17.52
2018-07-13T09:46:20.079Z,15.93
2018-07-13T09:48:48.135Z,15.43
2018-07-13T09:51:16.204Z,20.25
2018-07-13T09:53:44.328Z,16.00
2018-07-13T09:56:12.376Z,20.05
2018-07-13T09:58:40.472Z,22.95
2018-07-13T10:01:14.103Z,18.27
2018-07-13T10:03:42.618Z,17.55
2018-07-13T10:06:10.676Z,17.60
2018-07-13T10:08:38.753Z,20.25
2018-07-13T10:11:06.996Z,17.48
2018-07-13T10:13:35.092Z,15.13
2018-07-13T10:16:23.911Z,15.93
2018-07-13T10:18:52.486Z,17.15
2018-07-13T10:21:20.580Z,17.00
2018-07-13T10:23:48.796Z,18.20
2018-07-13T10:26:22.011Z,17.45
2018-07-13T10:28:50.361Z,16.07
2018-07-13T10:31:18.452Z,18.35
2018-07-13T10:33:47.444Z,19.48
2018-07-13T10:36:16.900Z,19.10
2018-07-13T10:38:45.275Z,16.80
2018-07-13T10:41:13.364Z,15.50
2018-07-13T10:43:41.862Z,14.43
2018-07-13T10:46:09.948Z,15.72
2018-07-13T10:48:38.041Z,15.30
2018-07-13T10:51:06.097Z,17.25
2018-07-13T10:53:34.428Z,16.07
2018-07-13T10:56:02.512Z,17.17
2018-07-13T10:58:30.647Z,15.32
2018-07-13T11:00:58.843Z,13.38
2018-07-13T11:03:26.987Z,15.48
2018-07-13T11:05:55.412Z,21.15
2018-07-13T11:08:24.003Z,13.68
2018-07-13T11:10:52.265Z,19.65
2018-07-13T11:13:20.696Z,17.45
2018-07-13T11:15:49.003Z,15.95
2018-07-13T11:18:17.063Z,14.23
2018-07-13T11:20:45.172Z,17.10
2018-07-13T11:23:13.240Z,19.60
2018-07-13T11:25:41.315Z,13.48
2018-07-13T11:28:09.544Z,13.75
2018-07-13T11:30:37.620Z,15.80
2018-07-13T11:33:06.616Z,16.97
2018-07-13T11:35:34.716Z,16.93
2018-07-13T11:38:02.782Z,14.03
2018-07-13T11:40:31.008Z,15.68
2018-07-13T11:42:59.216Z,16.00
2018-07-13T11:45:27.437Z,18.67
2018-07-13T11:47:55.591Z,19.80
2018-07-13T11:50:23.913Z,16.73
2018-07-13T11:52:52.214Z,16.52
2018-07-13T11:55:20.389Z,15.40
2018-07-13T11:57:48.645Z,15.40
2018-07-13T12:00:16.740Z,13.90
2018-07-13T12:02:44.783Z,13.38
2018-07-13T12:05:12.825Z,13.45
2018-07-13T12:07:41.011Z,16.75
2018-07-13T12:10:08.995Z,15.25
2018-07-13T12:12:37.071Z,16.82
2018-07-13T12:15:05.144Z,15.25
2018-07-13T12:17:33.268Z,13.80
2018-07-13T12:20:01.302Z,14.30
2018-07-13T12:22:29.390Z,14.73
2018-07-13T12:24:57.448Z,12.75
2018-07-13T12:27:25.501Z,17.20
2018-07-13T12:29:53.581Z,15.08
2018-07-13T12:32:22.500Z,17.50
2018-07-13T12:34:50.531Z,12.82
2018-07-13T12:37:18.687Z,18.90
2018-07-13T12:39:46.808Z,16.10
2018-07-13T12:42:14.897Z,12.13
2018-07-13T12:44:42.917Z,11.15
2018-07-13T12:47:10.968Z,9.78
2018-07-13T12:49:39.012Z,14.28
2018-07-13T12:52:07.628Z,14.95
2018-07-13T12:54:35.715Z,11.73
2018-07-13T12:57:03.744Z,9.08
2018-07-13T12:59:31.917Z,11.48
2018-07-13T13:01:59.909Z,10.13
2018-07-13T13:04:27.995Z,14.60
2018-07-13T13:06:56.482Z,13.95
2018-07-13T13:09:24.504Z,12.10
2018-07-13T13:11:52.556Z,10.25
2018-07-13T13:14:21.324Z,12.80
2018-07-13T13:16:49.431Z,11.75
2018-07-13T13:19:17.508Z,8.13
2018-07-13T13:21:45.783Z,10.23
2018-07-13T13:24:13.764Z,10.60
2018-07-13T13:26:41.824Z,9.80
2018-07-13T13:29:09.908Z,10.08
2018-07-13T13:31:38.281Z,8.08
2018-07-13T13:34:06.362Z,9.75
2018-07-13T13:36:35.516Z,12.93
2018-07-13T13:39:04.085Z,8.95
2018-07-13T13:41:32.336Z,8.58
2018-07-13T13:44:00.774Z,9.05
2018-07-13T13:46:29.233Z,8.95
2018-07-13T13:48:57.550Z,10.95
2018-07-13T13:51:26.273Z,12.88
2018-07-13T13:53:54.905Z,9.65
2018-07-13T13:56:23.384Z,8.30
2018-07-13T13:58:52.028Z,7.53
2018-07-13T14:01:20.425Z,8.08
2018-07-13T14:03:48.931Z,8.03
2018-07-13T14:06:17.051Z,9.58
2018-07-13T14:08:45.186Z,7.25
2018-07-13T14:11:13.479Z,6.47
2018-07-13T14:13:42.008Z,6.67
2018-07-13T14:16:10.047Z,5.03
2018-07-13T14:18:38.116Z,6.25
2018-07-13T14:21:06.615Z,5.50
2018-07-13T14:23:34.707Z,8.68
2018-07-13T14:26:02.808Z,5.28
2018-07-13T14:28:31.173Z,7.08
2018-07-13T14:30:59.221Z,9.88
2018-07-13T14:33:27.300Z,6.12
2018-07-13T14:35:55.405Z,5.42
2018-07-13T14:38:23.549Z,7.00
2018-07-13T14:40:52.112Z,5.00
2018-07-13T14:43:21.293Z,8.10
2018-07-13T14:45:49.573Z,4.47
2018-07-13T14:48:17.604Z,6.65
2018-07-13T14:50:45.680Z,6.87
2018-07-13T14:53:13.724Z,6.80
2018-07-13T14:55:41.759Z,5.72
2018-07-13T14:58:09.808Z,8.45
2018-07-13T15:00:37.859Z,7.50
2018-07-13T15:03:06.015Z,5.78
2018-07-13T15:05:34.156Z,6.62
2018-07-13T15:08:02.411Z,6.72
2018-07-13T15:10:30.726Z,7.28
2018-07-13T15:12:59.049Z,6.40
2018-07-13T15:15:27.319Z,6.83
2018-07-13T15:17:56.276Z,5.10
2018-07-13T15:20:24.784Z,5.58
2018-07-13T15:22:53.553Z,6.42
2018-07-13T15:25:22.848Z,6.10
2018-07-13T15:27:51.470Z,4.65
2018-07-13T15:30:20.511Z,6.75
2018-07-13T15:32:48.615Z,5.87
2018-07-13T15:35:16.966Z,5.22
2018-07-13T15:37:45.040Z,4.65
2018-07-13T15:40:13.208Z,5.78
2018-07-13T15:42:41.275Z,7.80
2018-07-13T15:45:09.716Z,4.85
2018-07-13T15:47:37.782Z,5.03
2018-07-13T15:50:05.842Z,5.58
2018-07-13T15:52:34.037Z,11.20
2018-07-13T15:55:02.440Z,5.03
2018-07-13T15:57:30.776Z,9.13
2018-07-13T15:59:59.185Z,5.58
2018-07-13T16:02:27.627Z,9.65
2018-07-13T16:04:55.885Z,8.75
2018-07-13T16:07:24.788Z,5.78
2018-07-13T16:09:53.395Z,6.47
2018-07-13T16:12:23.070Z,5.40
2018-07-13T16:14:52.145Z,4.72
2018-07-13T16:17:21.108Z,5.08
2018-07-13T16:19:49.549Z,6.05
2018-07-13T16:22:17.713Z,5.85
2018-07-13T16:24:45.879Z,6.50
2018-07-13T16:27:13.961Z,4.65
2018-07-13T16:29:42.088Z,6.08
2018-07-13T16:32:10.331Z,13.25
2018-07-13T16:34:38.466Z,5.37
2018-07-13T16:37:06.591Z,5.08
2018-07-13T16:39:34.891Z,6.40
2018-07-13T16:42:03.028Z,5.75
2018-07-13T16:44:31.313Z,5.37
2018-07-13T16:46:59.373Z,5.20
2018-07-13T16:49:27.411Z,4.62
2018-07-13T16:51:55.560Z,5.78
2018-07-13T16:54:23.743Z,4.08
2018-07-13T16:56:51.776Z,4.83
2018-07-13T16:59:19.843Z,7.30
2018-07-13T17:01:47.920Z,4.40
2018-07-13T17:04:16.047Z,6.03
2018-07-13T17:06:44.112Z,5.08
2018-07-13T17:09:12.541Z,6.47
2018-07-13T17:11:40.928Z,4.87
2018-07-13T17:14:08.978Z,7.10
2018-07-13T17:16:37.053Z,4.90
2018-07-13T17:19:05.167Z,8.15
2018-07-13T17:21:33.816Z,5.28
2018-07-13T17:24:02.152Z,5.28
2018-07-13T17:26:30.953Z,8.93
2018-07-13T17:28:59.769Z,5.58
2018-07-13T17:31:28.515Z,3.90
2018-07-13T17:33:57.569Z,5.42
2018-07-13T17:36:26.608Z,5.60
2018-07-13T17:38:55.369Z,4.22
2018-07-13T17:41:24.434Z,5.08
2018-07-13T17:43:52.485Z,4.58
2018-07-13T17:46:20.585Z,5.05
2018-07-13T17:48:48.636Z,4.33
2018-07-13T17:51:16.712Z,5.92
2018-07-13T17:53:44.767Z,7.08
2018-07-13T17:56:12.848Z,5.10
2018-07-13T17:58:40.932Z,6.85
2018-07-13T18:01:09.243Z,6.17
2018-07-13T18:03:37.378Z,4.45
2018-07-13T18:06:05.684Z,5.37
2018-07-13T18:08:33.904Z,6.35
2018-07-13T18:11:02.006Z,5.83
2018-07-13T18:13:30.130Z,6.95
2018-07-13T18:15:58.220Z,4.37
2018-07-13T18:18:26.259Z,6.17
2018-07-13T18:20:54.402Z,4.72
2018-07-13T18:23:22.487Z,4.00
2018-07-13T18:25:50.550Z,5.08
2018-07-13T18:28:18.654Z,5.37
2018-07-13T18:30:46.914Z,5.70
2018-07-13T18:33:15.052Z,3.87
2018-07-13T18:35:43.099Z,6.10
2018-07-13T18:38:11.152Z,5.50
2018-07-13T18:40:39.221Z,4.45
2018-07-13T18:43:07.271Z,5.78
2018-07-13T18:45:35.414Z,7.22
2018-07-13T18:48:03.672Z,5.15
2018-07-13T18:50:32.180Z,5.10
2018-07-13T18:53:00.400Z,4.28
2018-07-13T18:55:28.687Z,5.83
2018-07-13T18:57:57.539Z,4.45
2018-07-13T19:00:26.295Z,6.45
2018-07-13T19:02:54.369Z,4.85
2018-07-13T19:05:22.736Z,6.58
2018-07-13T19:07:50.803Z,7.58
2018-07-13T19:10:18.889Z,5.40
2018-07-13T19:12:46.939Z,4.72
2018-07-13T19:15:14.998Z,6.78
2018-07-13T19:17:43.044Z,4.78
2018-07-13T19:20:11.104Z,4.20
2018-07-13T19:22:39.232Z,7.35
2018-07-13T19:25:07.182Z,4.08
2018-07-13T19:27:35.231Z,5.12
2018-07-13T19:30:03.257Z,4.85
2018-07-13T19:32:31.575Z,4.97
2018-07-13T19:34:59.638Z,5.50
2018-07-13T19:37:27.728Z,4.72
2018-07-13T19:39:55.780Z,5.17
2018-07-13T19:42:23.999Z,6.70
2018-07-13T19:44:52.406Z,6.03
2018-07-13T19:47:20.448Z,6.35
2018-07-13T19:49:48.489Z,5.12
2018-07-13T19:52:16.537Z,6.20
2018-07-13T19:54:44.811Z,4.83
2018-07-13T19:57:12.953Z,6.03
2018-07-13T19:59:40.960Z,6.75
2018-07-13T20:02:09.139Z,9.05
2018-07-13T20:04:37.456Z,6.97
2018-07-13T20:07:05.837Z,10.28
2018-07-13T20:09:34.268Z,8.15
2018-07-13T20:12:02.407Z,6.70
2018-07-13T20:14:30.557Z,6.53
2018-07-13T20:16:58.964Z,8.03
2018-07-13T20:19:27.033Z,6.92
2018-07-13T20:21:55.733Z,9.85
2018-07-13T20:24:24.001Z,10.70
2018-07-13T20:26:52.212Z,11.75
2018-07-13T20:29:20.487Z,9.48
2018-07-13T20:31:48.551Z,8.93
2018-07-13T20:34:17.003Z,10.88
2018-07-13T20:36:45.127Z,9.83
2018-07-13T20:39:13.687Z,10.78
2018-07-13T20:41:41.776Z,11.88
2018-07-13T20:44:09.863Z,8.90
2018-07-13T20:46:38.059Z,10.53
2018-07-13T20:49:06.111Z,11.35
2018-07-13T20:51:34.269Z,10.43
2018-07-13T20:54:02.317Z,10.63
2018-07-13T20:56:30.814Z,10.95
2018-07-13T20:58:59.018Z,9.53
2018-07-13T21:01:27.150Z,10.18
2018-07-13T21:03:55.542Z,13.15
2018-07-13T21:06:23.798Z,12.58
2018-07-13T21:08:52.398Z,13.05
2018-07-13T21:11:20.604Z,11.48
2018-07-13T21:13:48.698Z,10.80
2018-07-13T21:16:16.756Z,13.30
2018-07-13T21:18:46.318Z,11.10
2018-07-13T21:21:14.408Z,11.68
2018-07-13T21:23:42.468Z,13.68
2018-07-13T21:26:10.812Z,15.43
2018-07-13T21:28:39.218Z,10.88
2018-07-13T21:31:07.291Z,13.10
2018-07-13T21:33:35.447Z,13.53
2018-07-13T21:36:03.972Z,13.95
2018-07-13T21:38:32.159Z,12.28
2018-07-13T21:41:00.280Z,13.43
2018-07-13T21:43:28.676Z,13.78
2018-07-13T21:45:56.911Z,13.05
2018-07-13T21:48:25.230Z,13.08
2018-07-13T21:50:53.532Z,12.82
2018-07-13T21:53:21.962Z,14.38
2018-07-13T21:55:50.299Z,16.45
2018-07-13T21:58:18.416Z,13.23
2018-07-13T22:00:46.479Z,13.55
2018-07-13T22:03:14.553Z,12.37
2018-07-13T22:05:42.604Z,15.08
2018-07-13T22:08:10.800Z,13.87
2018-07-13T22:10:39.024Z,12.70
2018-07-13T22:13:07.107Z,14.10
2018-07-13T22:15:35.339Z,13.43
2018-07-13T22:18:02.546Z,14.30
2018-07-13T22:20:30.579Z,15.08
2018-07-13T22:22:58.625Z,15.00
2018-07-13T22:25:26.692Z,15.27
2018-07-13T22:27:54.747Z,15.28
2018-07-13T22:30:22.783Z,16.20
2018-07-13T22:32:50.909Z,15.23
2018-07-13T22:35:18.980Z,16.80
2018-07-13T22:37:47.050Z,20.53
2018-07-13T22:40:15.253Z,16.03
2018-07-13T22:42:43.343Z,14.47
2018-07-13T22:45:11.900Z,15.50
2018-07-13T22:47:40.089Z,16.17
2018-07-13T22:50:08.191Z,14.80
2018-07-13T22:52:36.276Z,14.27
2018-07-13T22:55:04.382Z,14.83
2018-07-13T22:57:32.453Z,14.63
2018-07-13T23:00:00.626Z,18.00
2018-07-13T23:02:28.621Z,16.17
2018-07-13T23:04:56.704Z,20.77
2018-07-13T23:07:24.785Z,14.57
2018-07-13T23:09:52.847Z,14.17
2018-07-13T23:12:20.899Z,14.77
2018-07-13T23:14:48.963Z,14.37
2018-07-13T23:17:17.015Z,14.33
2018-07-13T23:19:45.138Z,14.33
2018-07-13T23:22:13.210Z,12.97
2018-07-13T23:24:41.307Z,15.30
2018-07-13T23:27:09.537Z,13.57
2018-07-13T23:29:37.601Z,14.13
2018-07-13T23:32:05.773Z,13.67
2018-07-13T23:34:33.860Z,14.83
2018-07-13T23:37:02.064Z,14.60
2018-07-13T23:39:30.188Z,15.47
2018-07-13T23:41:58.296Z,16.70
2018-07-13T23:44:26.763Z,14.20
2018-07-13T23:46:54.941Z,14.97
2018-07-13T23:49:23.239Z,18.13
2018-07-13T23:51:51.432Z,13.80
2018-07-13T23:54:19.572Z,15.27
2018-07-13T23:56:47.971Z,13.23
2018-07-13T23:59:16.130Z,14.37
